Girona, Spain

10:53 AM CEST on September 01, 2015 (GMT +0200)
Salitja - Mas Bes | | Change Station
CLOSE
Current Station
Personal Weather Station
Location: Vilobi d'Onyar, CT
Elevation: 279 ft
Nearby Weather Stations

Elev 279 ft 41.91 °N, 2.74 °E | Updated 3 minutes ago

Partly Cloudy
Partly Cloudy
77.1 °F
Feels Like 79 °F
N
0.0
Wind Variable Wind from East
Gusts 0.0 mph

Today
High -- | Low -- °F
--% Chance of Precip.
Yesterday
High -- | Low -- °F
Precip. -- in
7:14 AM 8:23 PM
Waning Gibbous, 90% visible
Pressure 30.01 in
Visibility 6.2 miles
Clouds Few 3500 ft
Heat Index 79 °F
Dew Point 64 °F
Humidity 64%
Rainfall 0.00 in
Snow Depth Not available.
UV 4 out of 12
Pollen Not available.
Air Quality Not available.
Flu Activity Not available.
METAR LEGE 010830Z 00000KT 9999 FEW035 25/17 Q1016
Pressure 30.01 in
Visibility 6.2 miles
Clouds Few 3500 ft
Heat Index 79 °F
Dew Point 64 °F
Humidity 64%
Rainfall 0.00 in
Snow Depth Not available.
UV 4 out of 12
Pollen Not available.
Air Quality Not available.
Flu Activity Not available.
METAR LEGE 010830Z 00000KT 9999 FEW035 25/17 Q1016

10-Day Weather Forecast

×

Almanac

Astronomy

Sep. 01, 2015 Rise Set
Actual Time
Civil Twilight
Nautical Twilight
Astronomical Twilight
Moon
Length of Visible Light
Length of Day
Tomorrow will be .
, % of the Moon is Illuminated

Today's Extremes

Country Highs Country Lows

Community

WunderPhotos

Upload Photos

1,851,490 photos uploaded!

WunderBlogs® & News

Nearby

Air Quality

  Air Quality AQ Index Pollutant
Not available.

Snow Depth

Station Depth Elevation

Earthquake Activity

City Distance Mag. Time & Date
Minimum magnitude displayed is 2.5.

Coastal Water Temperatures

Place Temperature

Stations

Nearby Weather Stations

Station Location Temp. Windchill Dew Point Humidity Wind Precip. Elev Updated Type